sensor_id;sensor_type;location;lat;lon;timestamp;P1;durP1;ratioP1;P2;durP2;ratioP2
8232;SDS011;4157;48.074;9.952;2022-08-19T00:00:23;5.68;;;4.28;;
8232;SDS011;4157;48.074;9.952;2022-08-19T00:02:51;5.28;;;4.07;;
8232;SDS011;4157;48.074;9.952;2022-08-19T00:05:19;7.95;;;5.15;;
8232;SDS011;4157;48.074;9.952;2022-08-19T00:07:48;7.28;;;5.03;;
8232;SDS011;4157;48.074;9.952;2022-08-19T00:10:17;6.63;;;5.05;;
8232;SDS011;4157;48.074;9.952;2022-08-19T00:12:45;6.90;;;5.38;;
8232;SDS011;4157;48.074;9.952;2022-08-19T00:15:16;6.45;;;5.20;;
8232;SDS011;4157;48.074;9.952;2022-08-19T00:17:44;6.43;;;5.05;;
8232;SDS011;4157;48.074;9.952;2022-08-19T00:20:14;5.78;;;4.20;;
8232;SDS011;4157;48.074;9.952;2022-08-19T00:22:43;8.57;;;5.30;;
8232;SDS011;4157;48.074;9.952;2022-08-19T00:25:11;7.18;;;5.70;;
8232;SDS011;4157;48.074;9.952;2022-08-19T00:27:39;7.07;;;5.03;;
8232;SDS011;4157;48.074;9.952;2022-08-19T00:30:08;8.02;;;5.95;;
8232;SDS011;4157;48.074;9.952;2022-08-19T00:32:38;7.75;;;6.95;;
8232;SDS011;4157;48.074;9.952;2022-08-19T00:35:06;8.65;;;6.88;;
8232;SDS011;4157;48.074;9.952;2022-08-19T00:37:35;9.10;;;7.43;;
8232;SDS011;4157;48.074;9.952;2022-08-19T00:40:03;7.47;;;6.47;;
8232;SDS011;4157;48.074;9.952;2022-08-19T00:42:32;7.78;;;6.32;;
8232;SDS011;4157;48.074;9.952;2022-08-19T00:45:00;8.57;;;7.30;;
8232;SDS011;4157;48.074;9.952;2022-08-19T00:47:28;8.30;;;7.35;;
8232;SDS011;4157;48.074;9.952;2022-08-19T00:49:57;9.70;;;7.40;;
8232;SDS011;4157;48.074;9.952;2022-08-19T00:52:27;8.20;;;6.70;;
8232;SDS011;4157;48.074;9.952;2022-08-19T00:54:55;8.70;;;7.50;;
8232;SDS011;4157;48.074;9.952;2022-08-19T00:57:25;8.40;;;6.93;;
8232;SDS011;4157;48.074;9.952;2022-08-19T00:59:54;13.88;;;7.75;;
8232;SDS011;4157;48.074;9.952;2022-08-19T01:02:23;11.07;;;8.23;;
8232;SDS011;4157;48.074;9.952;2022-08-19T01:04:53;10.02;;;7.65;;
8232;SDS011;4157;48.074;9.952;2022-08-19T01:07:22;9.88;;;7.95;;
8232;SDS011;4157;48.074;9.952;2022-08-19T01:09:50;9.77;;;8.73;;
8232;SDS011;4157;48.074;9.952;2022-08-19T01:12:18;10.02;;;8.10;;
8232;SDS011;4157;48.074;9.952;2022-08-19T01:14:47;8.82;;;7.90;;
8232;SDS011;4157;48.074;9.952;2022-08-19T01:17:15;10.30;;;8.68;;
8232;SDS011;4157;48.074;9.952;2022-08-19T01:19:43;9.95;;;8.07;;
8232;SDS011;4157;48.074;9.952;2022-08-19T01:22:14;10.70;;;8.88;;
8232;SDS011;4157;48.074;9.952;2022-08-19T01:24:45;9.95;;;8.27;;
8232;SDS011;4157;48.074;9.952;2022-08-19T01:27:13;10.05;;;8.95;;
8232;SDS011;4157;48.074;9.952;2022-08-19T01:29:41;10.48;;;9.13;;
8232;SDS011;4157;48.074;9.952;2022-08-19T01:32:11;10.48;;;9.02;;
8232;SDS011;4157;48.074;9.952;2022-08-19T01:34:40;9.85;;;8.85;;
8232;SDS011;4157;48.074;9.952;2022-08-19T01:37:12;13.88;;;12.35;;
8232;SDS011;4157;48.074;9.952;2022-08-19T01:39:40;13.88;;;12.48;;
8232;SDS011;4157;48.074;9.952;2022-08-19T01:42:10;15.65;;;14.00;;
8232;SDS011;4157;48.074;9.952;2022-08-19T01:44:38;15.52;;;13.77;;
8232;SDS011;4157;48.074;9.952;2022-08-19T01:47:07;16.23;;;14.63;;
8232;SDS011;4157;48.074;9.952;2022-08-19T01:49:35;17.70;;;15.80;;
8232;SDS011;4157;48.074;9.952;2022-08-19T01:52:03;18.80;;;16.80;;
8232;SDS011;4157;48.074;9.952;2022-08-19T01:54:32;19.20;;;17.30;;
8232;SDS011;4157;48.074;9.952;2022-08-19T01:57:01;18.10;;;16.10;;
8232;SDS011;4157;48.074;9.952;2022-08-19T01:59:31;19.45;;;17.42;;
8232;SDS011;4157;48.074;9.952;2022-08-19T02:01:59;22.52;;;19.77;;
8232;SDS011;4157;48.074;9.952;2022-08-19T02:04:27;23.10;;;19.75;;
8232;SDS011;4157;48.074;9.952;2022-08-19T02:06:54;24.98;;;22.35;;
8232;SDS011;4157;48.074;9.952;2022-08-19T02:09:22;24.48;;;21.88;;
8232;SDS011;4157;48.074;9.952;2022-08-19T02:11:50;26.33;;;23.55;;
8232;SDS011;4157;48.074;9.952;2022-08-19T02:14:19;25.75;;;23.08;;
8232;SDS011;4157;48.074;9.952;2022-08-19T02:16:48;27.33;;;22.75;;
8232;SDS011;4157;48.074;9.952;2022-08-19T02:19:16;24.85;;;22.25;;
8232;SDS011;4157;48.074;9.952;2022-08-19T02:21:43;24.15;;;21.40;;
8232;SDS011;4157;48.074;9.952;2022-08-19T02:24:11;24.55;;;21.98;;
8232;SDS011;4157;48.074;9.952;2022-08-19T02:26:39;26.40;;;23.70;;
8232;SDS011;4157;48.074;9.952;2022-08-19T02:29:07;24.83;;;22.23;;
8232;SDS011;4157;48.074;9.952;2022-08-19T02:31:35;24.67;;;21.98;;
8232;SDS011;4157;48.074;9.952;2022-08-19T02:34:05;25.65;;;22.13;;
8232;SDS011;4157;48.074;9.952;2022-08-19T02:36:32;27.52;;;24.60;;
8232;SDS011;4157;48.074;9.952;2022-08-19T02:39:00;24.73;;;22.10;;
8232;SDS011;4157;48.074;9.952;2022-08-19T02:41:28;25.05;;;21.75;;
8232;SDS011;4157;48.074;9.952;2022-08-19T02:43:57;25.50;;;22.60;;
8232;SDS011;4157;48.074;9.952;2022-08-19T02:46:27;25.08;;;21.90;;
8232;SDS011;4157;48.074;9.952;2022-08-19T02:48:55;23.77;;;21.25;;
8232;SDS011;4157;48.074;9.952;2022-08-19T02:51:25;26.38;;;22.83;;
8232;SDS011;4157;48.074;9.952;2022-08-19T02:53:54;24.73;;;21.55;;
8232;SDS011;4157;48.074;9.952;2022-08-19T02:56:22;25.42;;;22.65;;
8232;SDS011;4157;48.074;9.952;2022-08-19T02:58:50;24.90;;;21.90;;
8232;SDS011;4157;48.074;9.952;2022-08-19T03:01:21;25.67;;;21.40;;
8232;SDS011;4157;48.074;9.952;2022-08-19T03:03:49;23.67;;;21.13;;
8232;SDS011;4157;48.074;9.952;2022-08-19T03:06:18;25.55;;;21.60;;
8232;SDS011;4157;48.074;9.952;2022-08-19T03:08:48;24.13;;;21.42;;
8232;SDS011;4157;48.074;9.952;2022-08-19T03:11:17;25.30;;;22.05;;
8232;SDS011;4157;48.074;9.952;2022-08-19T03:13:45;25.98;;;23.25;;
8232;SDS011;4157;48.074;9.952;2022-08-19T03:16:14;25.15;;;22.45;;
8232;SDS011;4157;48.074;9.952;2022-08-19T03:18:42;24.83;;;22.17;;
8232;SDS011;4157;48.074;9.952;2022-08-19T03:21:14;25.73;;;23.08;;
8232;SDS011;4157;48.074;9.952;2022-08-19T03:23:42;21.73;;;19.40;;
8232;SDS011;4157;48.074;9.952;2022-08-19T03:26:11;24.33;;;21.80;;
8232;SDS011;4157;48.074;9.952;2022-08-19T03:28:40;25.23;;;21.92;;
8232;SDS011;4157;48.074;9.952;2022-08-19T03:31:10;23.95;;;21.45;;
8232;SDS011;4157;48.074;9.952;2022-08-19T03:33:38;24.52;;;21.92;;
8232;SDS011;4157;48.074;9.952;2022-08-19T03:36:08;22.13;;;19.55;;
8232;SDS011;4157;48.074;9.952;2022-08-19T03:38:37;21.92;;;19.63;;
8232;SDS011;4157;48.074;9.952;2022-08-19T03:41:06;22.10;;;19.80;;
8232;SDS011;4157;48.074;9.952;2022-08-19T03:43:36;21.52;;;19.23;;
8232;SDS011;4157;48.074;9.952;2022-08-19T03:46:05;20.60;;;17.83;;
8232;SDS011;4157;48.074;9.952;2022-08-19T03:48:34;18.95;;;16.98;;
8232;SDS011;4157;48.074;9.952;2022-08-19T03:51:02;19.58;;;16.58;;
8232;SDS011;4157;48.074;9.952;2022-08-19T03:53:31;20.88;;;17.85;;
8232;SDS011;4157;48.074;9.952;2022-08-19T03:55:59;19.88;;;17.63;;
8232;SDS011;4157;48.074;9.952;2022-08-19T03:58:27;19.65;;;17.40;;
8232;SDS011;4157;48.074;9.952;2022-08-19T04:00:56;19.20;;;17.20;;
8232;SDS011;4157;48.074;9.952;2022-08-19T04:03:25;18.15;;;16.35;;
8232;SDS011;4157;48.074;9.952;2022-08-19T04:05:53;17.98;;;16.08;;
8232;SDS011;4157;48.074;9.952;2022-08-19T04:08:21;19.20;;;16.98;;
8232;SDS011;4157;48.074;9.952;2022-08-19T04:10:48;20.17;;;16.55;;
8232;SDS011;4157;48.074;9.952;2022-08-19T04:13:17;20.30;;;16.50;;
8232;SDS011;4157;48.074;9.952;2022-08-19T04:15:45;20.38;;;16.52;;
8232;SDS011;4157;48.074;9.952;2022-08-19T04:18:14;17.30;;;15.57;;
8232;SDS011;4157;48.074;9.952;2022-08-19T04:20:45;16.52;;;14.65;;
8232;SDS011;4157;48.074;9.952;2022-08-19T04:23:14;17.65;;;14.88;;
8232;SDS011;4157;48.074;9.952;2022-08-19T04:25:43;17.52;;;15.23;;
8232;SDS011;4157;48.074;9.952;2022-08-19T04:28:12;18.10;;;16.08;;
8232;SDS011;4157;48.074;9.952;2022-08-19T04:30:41;20.20;;;17.98;;
8232;SDS011;4157;48.074;9.952;2022-08-19T04:33:09;18.95;;;16.67;;
8232;SDS011;4157;48.074;9.952;2022-08-19T04:35:39;16.98;;;15.15;;
8232;SDS011;4157;48.074;9.952;2022-08-19T04:38:08;16.10;;;14.40;;
8232;SDS011;4157;48.074;9.952;2022-08-19T04:40:39;17.45;;;15.15;;
8232;SDS011;4157;48.074;9.952;2022-08-19T04:43:25;18.38;;;16.23;;
8232;SDS011;4157;48.074;9.952;2022-08-19T04:45:53;18.30;;;16.17;;
8232;SDS011;4157;48.074;9.952;2022-08-19T04:48:21;18.63;;;16.63;;
8232;SDS011;4157;48.074;9.952;2022-08-19T04:50:53;18.50;;;16.00;;
8232;SDS011;4157;48.074;9.952;2022-08-19T04:53:23;19.30;;;16.63;;
8232;SDS011;4157;48.074;9.952;2022-08-19T04:55:54;19.20;;;17.10;;
8232;SDS011;4157;48.074;9.952;2022-08-19T04:58:22;19.23;;;17.23;;
8232;SDS011;4157;48.074;9.952;2022-08-19T05:00:50;20.67;;;18.48;;
8232;SDS011;4157;48.074;9.952;2022-08-19T05:03:18;21.30;;;19.00;;
8232;SDS011;4157;48.074;9.952;2022-08-19T05:05:46;20.83;;;18.58;;
8232;SDS011;4157;48.074;9.952;2022-08-19T05:08:17;20.90;;;18.55;;
8232;SDS011;4157;48.074;9.952;2022-08-19T05:10:46;20.85;;;18.42;;
8232;SDS011;4157;48.074;9.952;2022-08-19T05:13:15;21.30;;;18.75;;
8232;SDS011;4157;48.074;9.952;2022-08-19T05:15:43;23.98;;;20.30;;
8232;SDS011;4157;48.074;9.952;2022-08-19T05:18:11;22.05;;;19.58;;
8232;SDS011;4157;48.074;9.952;2022-08-19T05:20:56;21.80;;;19.50;;
8232;SDS011;4157;48.074;9.952;2022-08-19T05:23:44;21.50;;;18.35;;
8232;SDS011;4157;48.074;9.952;2022-08-19T05:26:11;22.02;;;19.67;;
8232;SDS011;4157;48.074;9.952;2022-08-19T05:28:39;21.33;;;17.80;;
8232;SDS011;4157;48.074;9.952;2022-08-19T05:31:07;27.50;;;21.52;;
8232;SDS011;4157;48.074;9.952;2022-08-19T05:33:35;27.15;;;22.55;;
8232;SDS011;4157;48.074;9.952;2022-08-19T05:36:03;32.17;;;25.80;;
8232;SDS011;4157;48.074;9.952;2022-08-19T05:38:32;33.08;;;26.13;;
8232;SDS011;4157;48.074;9.952;2022-08-19T05:41:05;29.20;;;23.30;;
8232;SDS011;4157;48.074;9.952;2022-08-19T05:43:33;27.15;;;21.40;;
8232;SDS011;4157;48.074;9.952;2022-08-19T05:46:01;25.98;;;21.35;;
8232;SDS011;4157;48.074;9.952;2022-08-19T05:48:30;20.38;;;17.58;;
8232;SDS011;4157;48.074;9.952;2022-08-19T05:50:57;23.58;;;20.08;;
8232;SDS011;4157;48.074;9.952;2022-08-19T05:53:25;24.55;;;21.38;;
8232;SDS011;4157;48.074;9.952;2022-08-19T05:55:53;19.13;;;16.42;;
8232;SDS011;4157;48.074;9.952;2022-08-19T05:58:22;20.85;;;17.75;;
8232;SDS011;4157;48.074;9.952;2022-08-19T06:00:50;21.52;;;18.25;;
8232;SDS011;4157;48.074;9.952;2022-08-19T06:03:19;18.20;;;16.17;;
8232;SDS011;4157;48.074;9.952;2022-08-19T06:05:46;18.83;;;15.98;;
8232;SDS011;4157;48.074;9.952;2022-08-19T06:08:14;17.33;;;14.95;;
8232;SDS011;4157;48.074;9.952;2022-08-19T06:10:43;19.15;;;16.83;;
8232;SDS011;4157;48.074;9.952;2022-08-19T06:13:11;18.60;;;16.17;;
8232;SDS011;4157;48.074;9.952;2022-08-19T06:15:40;17.23;;;15.18;;
8232;SDS011;4157;48.074;9.952;2022-08-19T06:18:09;19.30;;;15.93;;
8232;SDS011;4157;48.074;9.952;2022-08-19T06:20:37;16.58;;;14.73;;
8232;SDS011;4157;48.074;9.952;2022-08-19T06:23:05;19.88;;;17.25;;
8232;SDS011;4157;48.074;9.952;2022-08-19T06:25:33;17.10;;;15.18;;
8232;SDS011;4157;48.074;9.952;2022-08-19T06:28:01;18.10;;;14.95;;
8232;SDS011;4157;48.074;9.952;2022-08-19T06:30:30;17.33;;;14.88;;
8232;SDS011;4157;48.074;9.952;2022-08-19T06:32:59;15.98;;;13.85;;
8232;SDS011;4157;48.074;9.952;2022-08-19T06:35:27;17.40;;;14.32;;
8232;SDS011;4157;48.074;9.952;2022-08-19T06:37:55;16.45;;;14.38;;
8232;SDS011;4157;48.074;9.952;2022-08-19T06:40:24;16.95;;;14.60;;
8232;SDS011;4157;48.074;9.952;2022-08-19T06:42:53;15.77;;;13.27;;
8232;SDS011;4157;48.074;9.952;2022-08-19T06:45:22;16.27;;;13.65;;
8232;SDS011;4157;48.074;9.952;2022-08-19T06:47:51;18.00;;;15.52;;
8232;SDS011;4157;48.074;9.952;2022-08-19T06:50:23;20.15;;;16.58;;
8232;SDS011;4157;48.074;9.952;2022-08-19T06:52:50;21.42;;;17.50;;
8232;SDS011;4157;48.074;9.952;2022-08-19T06:55:19;22.00;;;18.55;;
8232;SDS011;4157;48.074;9.952;2022-08-19T06:57:47;23.80;;;19.40;;
8232;SDS011;4157;48.074;9.952;2022-08-19T07:00:18;24.67;;;20.75;;
8232;SDS011;4157;48.074;9.952;2022-08-19T07:02:46;25.20;;;21.15;;
8232;SDS011;4157;48.074;9.952;2022-08-19T07:05:15;24.63;;;20.25;;
8232;SDS011;4157;48.074;9.952;2022-08-19T07:07:44;26.38;;;22.05;;
8232;SDS011;4157;48.074;9.952;2022-08-19T07:10:12;27.70;;;22.92;;
8232;SDS011;4157;48.074;9.952;2022-08-19T07:12:40;26.77;;;23.27;;
8232;SDS011;4157;48.074;9.952;2022-08-19T07:15:08;30.95;;;24.10;;
8232;SDS011;4157;48.074;9.952;2022-08-19T07:17:37;30.67;;;25.25;;
8232;SDS011;4157;48.074;9.952;2022-08-19T07:20:06;34.85;;;27.48;;
8232;SDS011;4157;48.074;9.952;2022-08-19T07:22:34;34.90;;;28.30;;
8232;SDS011;4157;48.074;9.952;2022-08-19T07:25:05;31.20;;;24.75;;
8232;SDS011;4157;48.074;9.952;2022-08-19T07:27:33;30.83;;;23.80;;
8232;SDS011;4157;48.074;9.952;2022-08-19T07:30:01;32.00;;;24.40;;
8232;SDS011;4157;48.074;9.952;2022-08-19T07:32:29;33.10;;;25.98;;
8232;SDS011;4157;48.074;9.952;2022-08-19T07:34:57;33.88;;;26.23;;
8232;SDS011;4157;48.074;9.952;2022-08-19T07:37:26;35.08;;;27.55;;
8232;SDS011;4157;48.074;9.952;2022-08-19T07:39:54;31.15;;;24.77;;
8232;SDS011;4157;48.074;9.952;2022-08-19T07:42:23;37.40;;;29.23;;
8232;SDS011;4157;48.074;9.952;2022-08-19T07:44:52;37.33;;;29.08;;
8232;SDS011;4157;48.074;9.952;2022-08-19T07:47:20;36.67;;;29.55;;
8232;SDS011;4157;48.074;9.952;2022-08-19T07:49:48;35.35;;;29.33;;
8232;SDS011;4157;48.074;9.952;2022-08-19T07:52:15;34.42;;;27.58;;
8232;SDS011;4157;48.074;9.952;2022-08-19T07:54:43;36.40;;;28.98;;
8232;SDS011;4157;48.074;9.952;2022-08-19T07:57:11;37.15;;;28.50;;
8232;SDS011;4157;48.074;9.952;2022-08-19T07:59:40;34.88;;;27.80;;
8232;SDS011;4157;48.074;9.952;2022-08-19T08:02:08;36.58;;;29.13;;
8232;SDS011;4157;48.074;9.952;2022-08-19T08:04:36;42.70;;;31.17;;
8232;SDS011;4157;48.074;9.952;2022-08-19T08:07:22;34.97;;;28.40;;
8232;SDS011;4157;48.074;9.952;2022-08-19T08:10:08;34.88;;;27.25;;
8232;SDS011;4157;48.074;9.952;2022-08-19T08:12:37;32.22;;;25.52;;
8232;SDS011;4157;48.074;9.952;2022-08-19T08:15:09;32.38;;;25.98;;
8232;SDS011;4157;48.074;9.952;2022-08-19T08:17:42;34.55;;;26.98;;
8232;SDS011;4157;48.074;9.952;2022-08-19T08:20:10;33.15;;;27.17;;
8232;SDS011;4157;48.074;9.952;2022-08-19T08:22:42;30.83;;;25.73;;
8232;SDS011;4157;48.074;9.952;2022-08-19T08:25:28;36.38;;;28.80;;
8232;SDS011;4157;48.074;9.952;2022-08-19T08:27:57;32.83;;;26.77;;
8232;SDS011;4157;48.074;9.952;2022-08-19T08:30:28;35.45;;;28.25;;
8232;SDS011;4157;48.074;9.952;2022-08-19T08:32:58;37.35;;;29.80;;
8232;SDS011;4157;48.074;9.952;2022-08-19T08:35:26;38.13;;;30.55;;
8232;SDS011;4157;48.074;9.952;2022-08-19T08:37:54;39.45;;;31.88;;
8232;SDS011;4157;48.074;9.952;2022-08-19T08:40:23;39.95;;;32.08;;
8232;SDS011;4157;48.074;9.952;2022-08-19T08:42:55;37.95;;;30.55;;
8232;SDS011;4157;48.074;9.952;2022-08-19T08:45:29;39.13;;;31.07;;
8232;SDS011;4157;48.074;9.952;2022-08-19T08:47:59;36.38;;;29.48;;
8232;SDS011;4157;48.074;9.952;2022-08-19T08:50:29;40.28;;;32.13;;
8232;SDS011;4157;48.074;9.952;2022-08-19T08:53:01;40.65;;;32.53;;
8232;SDS011;4157;48.074;9.952;2022-08-19T08:55:30;39.78;;;30.42;;
8232;SDS011;4157;48.074;9.952;2022-08-19T08:58:01;40.90;;;32.08;;
8232;SDS011;4157;48.074;9.952;2022-08-19T09:00:32;38.75;;;31.23;;
8232;SDS011;4157;48.074;9.952;2022-08-19T09:03:01;38.63;;;30.38;;
8232;SDS011;4157;48.074;9.952;2022-08-19T09:05:32;38.05;;;30.17;;
8232;SDS011;4157;48.074;9.952;2022-08-19T09:10:32;36.28;;;30.65;;
8232;SDS011;4157;48.074;9.952;2022-08-19T09:13:04;35.70;;;28.67;;
8232;SDS011;4157;48.074;9.952;2022-08-19T09:15:39;38.78;;;30.50;;
8232;SDS011;4157;48.074;9.952;2022-08-19T09:18:08;38.20;;;30.20;;
8232;SDS011;4157;48.074;9.952;2022-08-19T09:20:36;36.55;;;30.48;;
8232;SDS011;4157;48.074;9.952;2022-08-19T09:23:04;36.10;;;29.60;;
8232;SDS011;4157;48.074;9.952;2022-08-19T09:25:33;36.50;;;29.92;;
8232;SDS011;4157;48.074;9.952;2022-08-19T09:28:02;35.53;;;29.55;;
8232;SDS011;4157;48.074;9.952;2022-08-19T09:30:32;34.63;;;28.35;;
8232;SDS011;4157;48.074;9.952;2022-08-19T09:33:01;36.53;;;29.60;;
8232;SDS011;4157;48.074;9.952;2022-08-19T09:35:30;37.15;;;28.92;;
8232;SDS011;4157;48.074;9.952;2022-08-19T09:37:59;33.30;;;27.75;;
8232;SDS011;4157;48.074;9.952;2022-08-19T09:40:27;32.85;;;26.48;;
8232;SDS011;4157;48.074;9.952;2022-08-19T09:42:55;34.40;;;28.67;;
8232;SDS011;4157;48.074;9.952;2022-08-19T09:45:28;37.15;;;29.17;;
8232;SDS011;4157;48.074;9.952;2022-08-19T09:47:56;35.13;;;28.50;;
8232;SDS011;4157;48.074;9.952;2022-08-19T09:50:26;33.90;;;29.02;;
8232;SDS011;4157;48.074;9.952;2022-08-19T09:52:54;33.85;;;28.27;;
8232;SDS011;4157;48.074;9.952;2022-08-19T09:55:23;34.67;;;29.95;;
8232;SDS011;4157;48.074;9.952;2022-08-19T09:57:53;37.20;;;30.00;;
8232;SDS011;4157;48.074;9.952;2022-08-19T10:00:21;37.65;;;28.23;;
8232;SDS011;4157;48.074;9.952;2022-08-19T10:02:49;35.63;;;29.88;;
8232;SDS011;4157;48.074;9.952;2022-08-19T10:05:17;37.15;;;31.17;;
8232;SDS011;4157;48.074;9.952;2022-08-19T10:08:04;37.05;;;30.50;;
8232;SDS011;4157;48.074;9.952;2022-08-19T10:10:34;34.78;;;27.35;;
8232;SDS011;4157;48.074;9.952;2022-08-19T10:13:02;35.05;;;29.17;;
8232;SDS011;4157;48.074;9.952;2022-08-19T10:15:30;34.47;;;28.48;;
8232;SDS011;4157;48.074;9.952;2022-08-19T10:17:58;32.30;;;26.90;;
8232;SDS011;4157;48.074;9.952;2022-08-19T10:20:27;30.70;;;25.88;;
8232;SDS011;4157;48.074;9.952;2022-08-19T10:22:55;31.95;;;25.98;;
8232;SDS011;4157;48.074;9.952;2022-08-19T10:25:26;25.92;;;22.95;;
8232;SDS011;4157;48.074;9.952;2022-08-19T10:27:54;27.27;;;24.30;;
8232;SDS011;4157;48.074;9.952;2022-08-19T10:30:22;32.50;;;26.95;;
8232;SDS011;4157;48.074;9.952;2022-08-19T10:32:50;30.02;;;26.25;;
8232;SDS011;4157;48.074;9.952;2022-08-19T10:35:18;31.35;;;25.90;;
8232;SDS011;4157;48.074;9.952;2022-08-19T10:37:46;29.15;;;25.27;;
8232;SDS011;4157;48.074;9.952;2022-08-19T10:40:14;29.75;;;26.25;;
8232;SDS011;4157;48.074;9.952;2022-08-19T10:42:43;29.40;;;25.50;;
8232;SDS011;4157;48.074;9.952;2022-08-19T10:45:11;30.55;;;27.23;;
8232;SDS011;4157;48.074;9.952;2022-08-19T10:47:39;28.95;;;25.60;;
8232;SDS011;4157;48.074;9.952;2022-08-19T10:50:08;29.27;;;25.42;;
8232;SDS011;4157;48.074;9.952;2022-08-19T10:52:53;26.90;;;23.17;;
8232;SDS011;4157;48.074;9.952;2022-08-19T10:55:22;28.17;;;24.70;;
8232;SDS011;4157;48.074;9.952;2022-08-19T10:58:11;25.52;;;22.23;;
8232;SDS011;4157;48.074;9.952;2022-08-19T11:00:40;27.45;;;24.55;;
8232;SDS011;4157;48.074;9.952;2022-08-19T11:03:09;26.77;;;23.70;;
8232;SDS011;4157;48.074;9.952;2022-08-19T11:05:37;26.02;;;23.23;;
8232;SDS011;4157;48.074;9.952;2022-08-19T11:08:06;24.52;;;21.83;;
8232;SDS011;4157;48.074;9.952;2022-08-19T11:10:41;25.60;;;22.58;;
8232;SDS011;4157;48.074;9.952;2022-08-19T11:13:11;22.60;;;20.08;;
8232;SDS011;4157;48.074;9.952;2022-08-19T11:15:39;21.80;;;18.75;;
8232;SDS011;4157;48.074;9.952;2022-08-19T11:18:07;22.75;;;19.25;;
8232;SDS011;4157;48.074;9.952;2022-08-19T11:20:35;20.25;;;18.15;;
8232;SDS011;4157;48.074;9.952;2022-08-19T11:23:03;22.58;;;18.08;;
8232;SDS011;4157;48.074;9.952;2022-08-19T11:25:32;20.95;;;18.48;;
8232;SDS011;4157;48.074;9.952;2022-08-19T11:28:00;19.83;;;16.17;;
8232;SDS011;4157;48.074;9.952;2022-08-19T11:30:29;18.85;;;16.88;;
8232;SDS011;4157;48.074;9.952;2022-08-19T11:32:57;17.90;;;15.18;;
8232;SDS011;4157;48.074;9.952;2022-08-19T11:35:26;17.85;;;14.85;;
8232;SDS011;4157;48.074;9.952;2022-08-19T11:37:54;19.13;;;14.77;;
8232;SDS011;4157;48.074;9.952;2022-08-19T11:40:23;16.23;;;13.55;;
8232;SDS011;4157;48.074;9.952;2022-08-19T11:42:51;15.13;;;13.55;;
8232;SDS011;4157;48.074;9.952;2022-08-19T11:45:22;15.63;;;13.43;;
8232;SDS011;4157;48.074;9.952;2022-08-19T11:47:52;16.67;;;14.02;;
8232;SDS011;4157;48.074;9.952;2022-08-19T11:50:20;14.77;;;13.18;;
8232;SDS011;4157;48.074;9.952;2022-08-19T11:52:49;16.92;;;13.45;;
8232;SDS011;4157;48.074;9.952;2022-08-19T11:55:17;14.13;;;12.63;;
8232;SDS011;4157;48.074;9.952;2022-08-19T11:57:44;15.52;;;12.85;;
8232;SDS011;4157;48.074;9.952;2022-08-19T12:00:13;14.10;;;12.23;;
8232;SDS011;4157;48.074;9.952;2022-08-19T12:02:41;15.65;;;13.50;;
8232;SDS011;4157;48.074;9.952;2022-08-19T12:05:11;14.35;;;12.60;;
8232;SDS011;4157;48.074;9.952;2022-08-19T12:07:39;15.27;;;12.77;;
8232;SDS011;4157;48.074;9.952;2022-08-19T12:10:07;13.05;;;11.65;;
8232;SDS011;4157;48.074;9.952;2022-08-19T12:12:35;14.40;;;12.82;;
8232;SDS011;4157;48.074;9.952;2022-08-19T12:15:08;13.40;;;11.80;;
8232;SDS011;4157;48.074;9.952;2022-08-19T12:17:38;12.50;;;11.20;;
8232;SDS011;4157;48.074;9.952;2022-08-19T12:20:06;13.32;;;11.90;;
8232;SDS011;4157;48.074;9.952;2022-08-19T12:22:36;13.77;;;11.77;;
8232;SDS011;4157;48.074;9.952;2022-08-19T12:25:05;14.63;;;11.90;;
8232;SDS011;4157;48.074;9.952;2022-08-19T12:27:33;13.73;;;12.07;;
8232;SDS011;4157;48.074;9.952;2022-08-19T12:30:02;15.98;;;13.85;;
8232;SDS011;4157;48.074;9.952;2022-08-19T12:32:30;14.60;;;12.95;;
8232;SDS011;4157;48.074;9.952;2022-08-19T12:34:58;14.07;;;12.27;;
8232;SDS011;4157;48.074;9.952;2022-08-19T12:37:25;14.90;;;13.20;;
8232;SDS011;4157;48.074;9.952;2022-08-19T12:39:55;15.10;;;12.65;;
8232;SDS011;4157;48.074;9.952;2022-08-19T12:42:22;14.13;;;11.38;;
8232;SDS011;4157;48.074;9.952;2022-08-19T12:44:50;12.85;;;11.50;;
8232;SDS011;4157;48.074;9.952;2022-08-19T12:47:18;14.02;;;12.52;;
8232;SDS011;4157;48.074;9.952;2022-08-19T12:49:46;14.77;;;13.18;;
8232;SDS011;4157;48.074;9.952;2022-08-19T12:52:15;15.65;;;11.90;;
8232;SDS011;4157;48.074;9.952;2022-08-19T12:54:46;16.00;;;12.98;;
8232;SDS011;4157;48.074;9.952;2022-08-19T12:57:16;14.18;;;12.30;;
8232;SDS011;4157;48.074;9.952;2022-08-19T12:59:44;15.43;;;13.23;;
8232;SDS011;4157;48.074;9.952;2022-08-19T13:02:12;15.32;;;13.70;;
8232;SDS011;4157;48.074;9.952;2022-08-19T13:04:40;15.95;;;13.32;;
8232;SDS011;4157;48.074;9.952;2022-08-19T13:07:07;16.10;;;13.45;;
8232;SDS011;4157;48.074;9.952;2022-08-19T13:09:35;15.35;;;13.75;;
8232;SDS011;4157;48.074;9.952;2022-08-19T13:12:03;15.18;;;13.57;;
8232;SDS011;4157;48.074;9.952;2022-08-19T13:14:35;15.77;;;14.13;;
8232;SDS011;4157;48.074;9.952;2022-08-19T13:17:03;18.58;;;14.98;;
8232;SDS011;4157;48.074;9.952;2022-08-19T13:19:31;17.00;;;15.20;;
8232;SDS011;4157;48.074;9.952;2022-08-19T13:21:59;18.48;;;16.55;;
8232;SDS011;4157;48.074;9.952;2022-08-19T13:24:27;18.38;;;15.23;;
8232;SDS011;4157;48.074;9.952;2022-08-19T13:26:54;18.52;;;15.48;;
8232;SDS011;4157;48.074;9.952;2022-08-19T13:29:22;19.27;;;16.50;;
8232;SDS011;4157;48.074;9.952;2022-08-19T13:32:09;19.40;;;17.02;;
8232;SDS011;4157;48.074;9.952;2022-08-19T13:34:54;17.67;;;15.77;;
8232;SDS011;4157;48.074;9.952;2022-08-19T13:37:23;19.65;;;16.77;;
8232;SDS011;4157;48.074;9.952;2022-08-19T13:40:05;18.92;;;16.88;;
8232;SDS011;4157;48.074;9.952;2022-08-19T13:42:38;19.43;;;17.37;;
8232;SDS011;4157;48.074;9.952;2022-08-19T13:45:07;18.33;;;16.42;;
8232;SDS011;4157;48.074;9.952;2022-08-19T13:47:36;19.38;;;15.93;;
8232;SDS011;4157;48.074;9.952;2022-08-19T13:50:09;16.40;;;14.70;;
8232;SDS011;4157;48.074;9.952;2022-08-19T13:52:38;15.05;;;13.23;;
8232;SDS011;4157;48.074;9.952;2022-08-19T13:55:06;13.73;;;12.18;;
8232;SDS011;4157;48.074;9.952;2022-08-19T13:57:34;12.18;;;10.88;;
8232;SDS011;4157;48.074;9.952;2022-08-19T14:00:05;12.35;;;10.38;;
8232;SDS011;4157;48.074;9.952;2022-08-19T14:02:33;11.38;;;10.18;;
8232;SDS011;4157;48.074;9.952;2022-08-19T14:05:03;11.57;;;9.35;;
8232;SDS011;4157;48.074;9.952;2022-08-19T14:07:31;9.93;;;8.57;;
8232;SDS011;4157;48.074;9.952;2022-08-19T14:09:59;10.10;;;8.57;;
8232;SDS011;4157;48.074;9.952;2022-08-19T14:12:27;10.60;;;8.43;;
8232;SDS011;4157;48.074;9.952;2022-08-19T14:14:55;8.50;;;7.40;;
8232;SDS011;4157;48.074;9.952;2022-08-19T14:17:23;8.60;;;6.82;;
8232;SDS011;4157;48.074;9.952;2022-08-19T14:19:55;9.05;;;8.05;;
8232;SDS011;4157;48.074;9.952;2022-08-19T14:22:25;9.07;;;7.35;;
8232;SDS011;4157;48.074;9.952;2022-08-19T14:24:52;10.40;;;7.60;;
8232;SDS011;4157;48.074;9.952;2022-08-19T14:27:20;9.98;;;7.93;;
8232;SDS011;4157;48.074;9.952;2022-08-19T14:29:50;10.63;;;8.60;;
8232;SDS011;4157;48.074;9.952;2022-08-19T14:32:18;10.27;;;9.27;;
8232;SDS011;4157;48.074;9.952;2022-08-19T14:34:47;10.35;;;9.25;;
8232;SDS011;4157;48.074;9.952;2022-08-19T14:37:15;12.82;;;10.80;;
8232;SDS011;4157;48.074;9.952;2022-08-19T14:39:44;13.93;;;12.40;;
8232;SDS011;4157;48.074;9.952;2022-08-19T14:42:12;13.80;;;11.90;;
8232;SDS011;4157;48.074;9.952;2022-08-19T14:44:40;15.55;;;14.05;;
8232;SDS011;4157;48.074;9.952;2022-08-19T14:47:08;17.35;;;14.85;;
8232;SDS011;4157;48.074;9.952;2022-08-19T14:49:36;18.10;;;16.20;;
8232;SDS011;4157;48.074;9.952;2022-08-19T14:52:05;16.90;;;14.85;;
8232;SDS011;4157;48.074;9.952;2022-08-19T14:54:33;17.92;;;16.02;;
8232;SDS011;4157;48.074;9.952;2022-08-19T14:57:02;16.38;;;14.68;;
8232;SDS011;4157;48.074;9.952;2022-08-19T14:59:30;16.77;;;14.95;;
8232;SDS011;4157;48.074;9.952;2022-08-19T15:01:58;16.00;;;14.27;;
8232;SDS011;4157;48.074;9.952;2022-08-19T15:04:26;16.33;;;14.57;;